Time;durP1;ratioP1;P1;durP2;ratioP2;P2;SDS_P1;SDS_P2;PMS_P1;PMS_P2;Temp;Humidity;BMP_temperature;BMP_pressure;BME280_temperature;BME280_humidity;BME280_pressure;Samples;Min_cycle;Max_cycle;Signal;HPM_P1;HPM_P2
2021/08/04 00:00:39;;;;;;;7.50;3.10;;;15.30;99.90;;;;;;5031528;28;20021;-71
2021/08/04 00:03:04;;;;;;;10.23;3.10;;;15.30;99.90;;;;;;5031633;28;20045;-72
2021/08/04 00:05:30;;;;;;;6.60;3.30;;;15.40;99.90;;;;;;5031973;28;20368;-71
2021/08/04 00:07:55;;;;;;;5.30;3.17;;;15.40;99.90;;;;;;5035691;28;20030;-71
2021/08/04 00:10:21;;;;;;;5.55;3.30;;;15.50;99.90;;;;;;5035682;28;20075;-71
2021/08/04 00:12:48;;;;;;;4.72;3.28;;;15.50;99.90;;;;;;5035340;28;20025;-72
2021/08/04 00:15:15;;;;;;;8.18;3.28;;;15.50;99.90;;;;;;5035514;28;20109;-72
2021/08/04 00:17:41;;;;;;;6.38;3.60;;;15.50;99.90;;;;;;5036060;28;20048;-72
2021/08/04 00:20:09;;;;;;;6.40;3.50;;;15.40;99.90;;;;;;5035319;28;20057;-71
2021/08/04 00:22:35;;;;;;;5.50;3.75;;;15.40;99.90;;;;;;5017570;28;20030;-71
2021/08/04 00:27:36;;;;;;;8.18;3.35;;;15.30;99.90;;;;;;5012227;28;20038;-72
2021/08/04 00:30:02;;;;;;;7.78;3.13;;;15.30;99.90;;;;;;4998806;28;20088;-72
2021/08/04 00:32:28;;;;;;;6.70;3.42;;;15.40;99.90;;;;;;4993427;28;20067;-72
2021/08/04 00:34:54;;;;;;;4.18;3.00;;;15.30;99.90;;;;;;4994524;28;20065;-72
2021/08/04 00:37:19;;;;;;;6.25;4.18;;;15.20;99.90;;;;;;4975905;28;20027;-72
2021/08/04 00:39:45;;;;;;;3.75;3.45;;;15.20;99.90;;;;;;4975704;28;20401;-72
2021/08/04 00:42:11;;;;;;;5.60;3.67;;;15.20;99.90;;;;;;4975463;28;20030;-72
2021/08/04 00:44:37;;;;;;;4.70;3.85;;;15.20;99.90;;;;;;4974813;28;20030;-72
2021/08/04 00:47:04;;;;;;;9.10;3.60;;;15.20;99.90;;;;;;4974269;28;20035;-72
2021/08/04 00:49:30;;;;;;;6.85;3.33;;;15.20;99.90;;;;;;4974047;28;20178;-71
2021/08/04 00:51:56;;;;;;;5.25;3.15;;;15.20;99.90;;;;;;4975706;28;20023;-72
2021/08/04 00:54:22;;;;;;;4.35;3.30;;;15.10;99.90;;;;;;4974837;28;20037;-71
2021/08/04 00:56:47;;;;;;;5.57;3.53;;;15.10;99.90;;;;;;4987661;28;20040;-71
2021/08/04 00:59:15;;;;;;;6.70;3.30;;;15.10;99.90;;;;;;4994701;28;20468;-71
2021/08/04 01:01:51;;;;;;;6.72;3.50;;;15.20;99.90;;;;;;4994895;28;20045;-71
2021/08/04 01:04:46;;;;;;;4.03;3.15;;;15.20;99.90;;;;;;4993360;28;20026;-71
2021/08/04 01:07:47;;;;;;;3.30;2.72;;;15.20;99.90;;;;;;4977542;28;20022;-71
2021/08/04 01:10:25;;;;;;;5.75;3.17;;;15.20;99.90;;;;;;4994778;28;20030;-71
2021/08/04 01:13:28;;;;;;;3.65;3.28;;;15.10;99.90;;;;;;4994401;28;20034;-71
2021/08/04 01:15:57;;;;;;;6.97;3.67;;;15.00;99.90;;;;;;4971217;28;20070;-71
2021/08/04 01:18:30;;;;;;;4.10;2.97;;;15.00;99.90;;;;;;4994125;28;20056;-71
2021/08/04 01:20:56;;;;;;;9.93;3.67;;;15.00;99.90;;;;;;4994713;28;20046;-70
2021/08/04 01:23:56;;;;;;;4.90;3.08;;;15.00;99.90;;;;;;4995191;28;20100;-71
2021/08/04 01:26:40;;;;;;;5.53;3.40;;;15.00;99.90;;;;;;4994193;28;20042;-71
2021/08/04 01:29:10;;;;;;;6.47;3.50;;;14.90;99.90;;;;;;4994229;28;20022;-70
2021/08/04 01:31:38;;;;;;;7.03;3.42;;;14.90;99.90;;;;;;4994099;28;20385;-71
2021/08/04 01:34:05;;;;;;;10.02;3.58;;;14.80;99.90;;;;;;4994088;28;20034;-71
2021/08/04 01:36:32;;;;;;;5.40;3.33;;;14.90;99.90;;;;;;4993417;28;20469;-71
2021/08/04 01:39:00;;;;;;;6.00;3.35;;;14.80;99.90;;;;;;4994034;28;20520;-70
2021/08/04 01:41:26;;;;;;;8.73;3.53;;;14.80;99.90;;;;;;4992913;28;20030;-71
2021/08/04 01:43:53;;;;;;;4.75;3.13;;;14.80;99.90;;;;;;4993879;28;20498;-70
2021/08/04 01:46:21;;;;;;;7.10;3.45;;;14.70;99.90;;;;;;4993281;28;20030;-71
2021/08/04 01:48:47;;;;;;;8.23;3.05;;;14.60;99.90;;;;;;4993799;28;20033;-72
2021/08/04 01:51:16;;;;;;;4.03;3.65;;;14.70;99.90;;;;;;4993907;28;20149;-71
2021/08/04 01:53:44;;;;;;;8.73;3.35;;;14.70;99.90;;;;;;4993643;28;20030;-71
2021/08/04 01:56:10;;;;;;;6.78;3.13;;;14.80;99.90;;;;;;4992907;28;20393;-71
2021/08/04 01:58:39;;;;;;;6.85;3.00;;;14.80;99.90;;;;;;4993697;28;20030;-71
2021/08/04 02:01:04;;;;;;;7.07;3.20;;;14.90;99.90;;;;;;4993502;28;20145;-71
2021/08/04 02:03:30;;;;;;;5.05;3.17;;;14.90;99.90;;;;;;4993644;28;20105;-72
2021/08/04 02:05:59;;;;;;;7.45;3.55;;;14.80;99.90;;;;;;4992900;28;20124;-71
2021/08/04 02:08:31;;;;;;;5.68;3.08;;;14.80;99.90;;;;;;4993662;28;20392;-71
2021/08/04 02:10:59;;;;;;;3.80;2.85;;;14.80;99.90;;;;;;4993441;28;20026;-71
2021/08/04 02:14:12;;;;;;;6.07;2.90;;;14.70;99.90;;;;;;4993314;28;20022;-71
2021/08/04 02:16:45;;;;;;;4.57;2.85;;;14.70;99.90;;;;;;4951693;28;20572;-72
2021/08/04 02:19:27;;;;;;;3.47;3.17;;;14.70;99.90;;;;;;4952523;29;20108;-72
2021/08/04 02:22:16;;;;;;;7.38;3.28;;;14.80;99.90;;;;;;4978162;28;20041;-71
2021/08/04 02:24:47;;;;;;;3.20;2.92;;;14.80;99.90;;;;;;4972012;28;20432;-72
2021/08/04 02:27:14;;;;;;;12.45;3.33;;;14.80;99.90;;;;;;4992986;28;20035;-72
2021/08/04 02:29:42;;;;;;;6.68;2.95;;;14.80;99.90;;;;;;4992319;28;20018;-72
2021/08/04 02:32:08;;;;;;;7.82;3.47;;;14.90;99.90;;;;;;4991730;28;20036;-71
2021/08/04 02:34:34;;;;;;;4.90;3.38;;;14.90;99.90;;;;;;4991991;28;20026;-71
2021/08/04 02:37:00;;;;;;;4.93;2.70;;;15.00;99.90;;;;;;4993044;28;20476;-71
2021/08/04 02:39:26;;;;;;;5.90;3.08;;;14.80;99.90;;;;;;4992936;28;20033;-72
2021/08/04 02:41:52;;;;;;;6.10;3.15;;;14.90;99.90;;;;;;4992607;28;20033;-71
2021/08/04 02:44:20;;;;;;;4.68;3.17;;;14.90;99.90;;;;;;4992259;28;20018;-71
2021/08/04 02:46:47;;;;;;;7.82;2.90;;;14.80;99.90;;;;;;4992678;28;20026;-72
2021/08/04 02:49:15;;;;;;;3.33;2.72;;;14.80;99.90;;;;;;4992611;28;20018;-72
2021/08/04 02:51:42;;;;;;;4.75;2.85;;;14.60;99.90;;;;;;4975319;28;20030;-72
2021/08/04 02:54:12;;;;;;;3.55;2.90;;;14.50;99.90;;;;;;4992809;28;20026;-72
2021/08/04 02:56:38;;;;;;;4.60;3.03;;;14.70;99.90;;;;;;4991850;28;20116;-72
2021/08/04 02:59:03;;;;;;;4.80;3.50;;;14.80;99.90;;;;;;4992681;28;20063;-72
2021/08/04 03:01:29;;;;;;;5.13;3.50;;;14.90;99.90;;;;;;4992559;28;20539;-72
2021/08/04 03:03:55;;;;;;;12.40;3.58;;;14.90;99.90;;;;;;4992703;28;20026;-72
2021/08/04 03:06:20;;;;;;;7.03;3.30;;;14.90;99.90;;;;;;4991877;28;20097;-72
2021/08/04 03:08:46;;;;;;;7.32;4.05;;;14.80;99.90;;;;;;4992456;28;20421;-72
2021/08/04 03:11:11;;;;;;;8.68;4.25;;;14.80;99.90;;;;;;4992307;28;20034;-72
2021/08/04 03:13:37;;;;;;;4.88;3.75;;;14.80;99.90;;;;;;4992449;28;20084;-72
2021/08/04 03:16:03;;;;;;;8.15;3.70;;;14.80;99.90;;;;;;4991569;28;20104;-72
2021/08/04 03:18:29;;;;;;;7.57;3.75;;;14.80;99.90;;;;;;4992489;28;20032;-71
2021/08/04 03:20:55;;;;;;;6.63;3.97;;;14.80;99.90;;;;;;4992410;28;20026;-72
2021/08/04 03:23:21;;;;;;;6.90;4.05;;;14.80;99.90;;;;;;4992396;28;20401;-72
2021/08/04 03:25:47;;;;;;;8.55;3.92;;;14.80;99.90;;;;;;4986915;28;20105;-72
2021/08/04 03:28:13;;;;;;;7.97;3.80;;;14.70;99.90;;;;;;4972787;28;20031;-72
2021/08/04 03:30:38;;;;;;;6.28;4.75;;;14.70;99.90;;;;;;4972809;28;20038;-71
2021/08/04 03:33:04;;;;;;;3.95;3.58;;;14.70;99.90;;;;;;4972934;28;20486;-71
2021/08/04 03:35:30;;;;;;;6.15;3.90;;;14.70;99.90;;;;;;4954715;28;20081;-72
2021/08/04 03:37:56;;;;;;;3.88;3.53;;;14.60;99.90;;;;;;4972620;28;20034;-71
2021/08/04 03:40:22;;;;;;;6.57;3.65;;;14.50;99.90;;;;;;4973704;28;20027;-71
2021/08/04 03:42:47;;;;;;;5.45;3.85;;;14.50;99.90;;;;;;4976521;28;20027;-71
2021/08/04 03:45:13;;;;;;;4.88;3.63;;;14.50;99.90;;;;;;4975909;28;20114;-72
2021/08/04 03:47:39;;;;;;;3.75;3.30;;;14.50;99.90;;;;;;4976225;28;20034;-71
2021/08/04 03:50:05;;;;;;;10.57;3.65;;;14.50;99.90;;;;;;4976802;28;20477;-71
2021/08/04 03:52:32;;;;;;;6.78;3.72;;;14.60;99.90;;;;;;4976757;28;20489;-71
2021/08/04 03:54:57;;;;;;;6.10;3.70;;;14.60;99.90;;;;;;4976056;28;20109;-72
2021/08/04 03:57:23;;;;;;;6.55;3.70;;;14.50;99.90;;;;;;4993776;28;20540;-71
2021/08/04 03:59:49;;;;;;;5.18;3.50;;;14.60;99.90;;;;;;4995836;28;20061;-72
2021/08/04 04:02:14;;;;;;;4.38;3.58;;;14.60;99.90;;;;;;4996821;28;20030;-72
2021/08/04 04:04:40;;;;;;;4.15;3.42;;;14.60;99.90;;;;;;4996239;28;20038;-71
2021/08/04 04:07:06;;;;;;;4.45;3.13;;;14.50;99.90;;;;;;4996875;28;20034;-72
2021/08/04 04:09:31;;;;;;;4.03;3.08;;;14.40;99.90;;;;;;4995973;28;20030;-71
2021/08/04 04:11:57;;;;;;;6.43;3.28;;;14.50;99.90;;;;;;4988903;28;20030;-72
2021/08/04 04:14:23;;;;;;;4.80;3.45;;;14.40;99.90;;;;;;4993627;28;20026;-72
2021/08/04 04:16:48;;;;;;;8.20;3.35;;;14.50;99.90;;;;;;4996441;28;20081;-72
2021/08/04 04:19:14;;;;;;;4.95;3.70;;;14.50;99.90;;;;;;4995856;28;20121;-71
2021/08/04 04:21:40;;;;;;;3.75;3.45;;;14.60;99.90;;;;;;4996145;28;20022;-71
2021/08/04 04:24:05;;;;;;;4.05;3.75;;;14.60;99.90;;;;;;4995770;28;20058;-72
2021/08/04 04:26:31;;;;;;;7.05;4.03;;;14.60;99.90;;;;;;4994702;28;20080;-72
2021/08/04 04:28:57;;;;;;;6.53;3.83;;;14.70;99.90;;;;;;4995415;28;20022;-72
2021/08/04 04:31:23;;;;;;;8.88;3.97;;;14.80;99.90;;;;;;4995702;28;20026;-72
2021/08/04 04:33:48;;;;;;;9.50;4.28;;;14.80;99.90;;;;;;4995520;28;20026;-72
2021/08/04 04:36:14;;;;;;;6.05;3.75;;;14.80;99.90;;;;;;4994890;28;20392;-72
2021/08/04 04:38:39;;;;;;;7.40;3.97;;;14.80;99.90;;;;;;4977890;28;20393;-71
2021/08/04 04:41:05;;;;;;;5.70;3.72;;;14.80;99.90;;;;;;4994945;28;20152;-72
2021/08/04 04:43:31;;;;;;;8.80;3.33;;;14.90;99.90;;;;;;4994845;28;20739;-72
2021/08/04 04:45:57;;;;;;;6.80;3.80;;;14.80;99.90;;;;;;4994238;28;20034;-72
2021/08/04 04:48:22;;;;;;;7.00;3.88;;;14.90;99.90;;;;;;4994854;28;20030;-72
2021/08/04 04:50:48;;;;;;;5.35;3.83;;;14.90;99.90;;;;;;4995187;28;20022;-72
2021/08/04 04:53:14;;;;;;;4.47;4.07;;;14.90;99.90;;;;;;4976210;28;20037;-72
2021/08/04 04:55:39;;;;;;;5.22;3.80;;;15.00;99.90;;;;;;4994147;28;20037;-72
2021/08/04 04:58:05;;;;;;;7.30;3.80;;;15.00;99.90;;;;;;4994549;28;20105;-72
2021/08/04 05:00:31;;;;;;;7.22;3.92;;;15.00;99.90;;;;;;4994748;28;20037;-72
2021/08/04 05:02:56;;;;;;;7.88;4.10;;;15.10;99.90;;;;;;4977233;28;20050;-71
2021/08/04 05:05:22;;;;;;;5.13;3.30;;;15.20;99.90;;;;;;4993818;28;20025;-74
2021/08/04 05:07:47;;;;;;;12.07;3.65;;;15.20;99.90;;;;;;4994652;28;20031;-74
2021/08/04 05:10:13;;;;;;;11.93;3.85;;;15.20;99.90;;;;;;4994500;28;20026;-74
2021/08/04 05:12:39;;;;;;;5.45;3.22;;;15.30;99.90;;;;;;4994195;28;20389;-74
2021/08/04 05:15:06;;;;;;;3.20;2.92;;;15.30;99.90;;;;;;4994125;28;20113;-74
2021/08/04 05:17:32;;;;;;;6.53;3.22;;;15.30;99.90;;;;;;4977684;28;20030;-74
2021/08/04 05:19:57;;;;;;;6.20;3.25;;;15.30;99.90;;;;;;4994232;28;20026;-74
2021/08/04 05:22:23;;;;;;;3.00;2.38;;;15.40;99.90;;;;;;4993978;28;20385;-75
2021/08/04 05:24:49;;;;;;;3.97;2.78;;;15.30;99.90;;;;;;4975712;28;20034;-70
2021/08/04 05:27:14;;;;;;;3.35;2.33;;;15.30;99.90;;;;;;4994105;28;20109;-71
2021/08/04 05:29:40;;;;;;;2.90;2.50;;;15.50;99.90;;;;;;4976292;28;20547;-72
2021/08/04 05:32:06;;;;;;;5.38;2.50;;;15.50;99.90;;;;;;4993990;28;20034;-73
2021/08/04 05:34:32;;;;;;;4.70;2.95;;;15.60;99.90;;;;;;4993018;28;20022;-73
2021/08/04 05:36:58;;;;;;;6.13;2.75;;;15.80;99.90;;;;;;4993787;28;20030;-73
2021/08/04 05:39:23;;;;;;;2.70;2.50;;;15.90;99.90;;;;;;4993696;28;20105;-72
2021/08/04 05:41:49;;;;;;;7.40;2.47;;;15.90;99.90;;;;;;4993388;28;20567;-72
2021/08/04 05:44:14;;;;;;;3.55;2.22;;;16.00;99.90;;;;;;4993177;28;20156;-69
2021/08/04 05:46:40;;;;;;;6.22;2.50;;;16.00;99.90;;;;;;4993167;28;20488;-73
2021/08/04 05:49:06;;;;;;;7.10;2.25;;;15.90;99.90;;;;;;4993591;28;20045;-72
2021/08/04 05:51:31;;;;;;;2.53;2.33;;;16.00;99.90;;;;;;4993644;28;20041;-71
2021/08/04 05:53:57;;;;;;;8.07;2.40;;;16.00;99.90;;;;;;4987043;28;20030;-71
2021/08/04 05:56:23;;;;;;;2.70;2.42;;;16.00;99.90;;;;;;4988028;28;20028;-72
2021/08/04 05:58:48;;;;;;;3.85;2.20;;;15.90;99.90;;;;;;4992985;28;20062;-72
2021/08/04 06:01:14;;;;;;;5.55;2.58;;;15.80;99.90;;;;;;4989814;28;20121;-72
2021/08/04 06:03:39;;;;;;;4.10;2.30;;;15.60;99.90;;;;;;4985257;28;20028;-72
2021/08/04 06:06:05;;;;;;;4.53;2.58;;;15.70;99.90;;;;;;4975095;28;20081;-72
2021/08/04 06:08:31;;;;;;;4.65;2.78;;;15.60;99.90;;;;;;5005123;28;20022;-72
2021/08/04 06:10:57;;;;;;;4.60;2.58;;;15.80;99.90;;;;;;5012827;28;20049;-72
2021/08/04 06:13:22;;;;;;;4.45;2.75;;;15.70;99.90;;;;;;5012316;28;20045;-72
2021/08/04 06:15:49;;;;;;;2.38;2.17;;;15.40;99.90;;;;;;5011984;28;20017;-73
2021/08/04 06:18:15;;;;;;;6.60;2.67;;;15.20;99.90;;;;;;4995082;28;20076;-73
2021/08/04 06:20:41;;;;;;;4.57;2.65;;;15.30;99.90;;;;;;5000257;28;20027;-72
2021/08/04 06:23:07;;;;;;;2.42;2.22;;;15.30;99.90;;;;;;4992745;28;20014;-73
2021/08/04 06:25:32;;;;;;;5.70;2.45;;;15.30;99.90;;;;;;4991801;28;20045;-73
2021/08/04 06:27:58;;;;;;;3.67;2.15;;;15.30;99.90;;;;;;4992844;28;20053;-74
2021/08/04 06:30:24;;;;;;;4.80;2.17;;;15.30;99.90;;;;;;4974887;28;20022;-73
2021/08/04 06:32:49;;;;;;;4.97;2.40;;;15.40;99.90;;;;;;4990424;28;20026;-72
2021/08/04 06:35:15;;;;;;;2.50;2.30;;;15.60;99.90;;;;;;4991636;28;20034;-72
2021/08/04 06:37:41;;;;;;;2.22;1.65;;;15.70;99.90;;;;;;4992585;28;20034;-72
2021/08/04 06:40:07;;;;;;;5.05;2.00;;;16.00;99.90;;;;;;4992854;28;20042;-73
2021/08/04 06:42:33;;;;;;;2.97;1.98;;;16.20;99.90;;;;;;4992456;28;20038;-72
2021/08/04 06:44:59;;;;;;;4.32;2.20;;;16.20;99.90;;;;;;4992105;28;20121;-74
2021/08/04 06:47:24;;;;;;;2.17;1.95;;;16.30;99.90;;;;;;4992237;28;20026;-72
2021/08/04 06:49:50;;;;;;;2.72;2.35;;;16.50;99.90;;;;;;4992466;28;20038;-73
2021/08/04 06:52:16;;;;;;;6.22;2.33;;;16.70;99.90;;;;;;4992433;28;20076;-73
2021/08/04 06:54:41;;;;;;;3.53;1.85;;;17.00;99.90;;;;;;4991457;28;20030;-72
2021/08/04 06:57:07;;;;;;;2.72;1.52;;;17.00;99.90;;;;;;4991707;28;20032;-72
2021/08/04 06:59:33;;;;;;;2.35;1.90;;;17.10;99.90;;;;;;4993867;28;20026;-73
2021/08/04 07:02:01;;;;;;;2.90;1.77;;;17.30;99.90;;;;;;4992640;28;20022;-74
2021/08/04 07:04:29;;;;;;;7.25;1.80;;;17.40;99.90;;;;;;4992043;28;20030;-72
2021/08/04 07:06:59;;;;;;;4.72;1.67;;;17.70;99.90;;;;;;4992247;28;20109;-73
2021/08/04 07:09:26;;;;;;;4.32;1.95;;;17.70;99.90;;;;;;4995895;23;20031;-71
2021/08/04 07:11:52;;;;;;;2.38;1.35;;;18.10;99.90;;;;;;5002262;28;20030;-71
2021/08/04 07:14:18;;;;;;;1.70;1.60;;;18.10;99.90;;;;;;4991484;28;20487;-71
2021/08/04 07:16:45;;;;;;;2.30;1.77;;;17.70;99.90;;;;;;5009680;28;20102;-71
2021/08/04 07:19:11;;;;;;;3.72;1.60;;;17.60;99.90;;;;;;5010028;28;20022;-71
2021/08/04 07:21:38;;;;;;;1.88;1.77;;;17.80;99.90;;;;;;5010789;28;20030;-72
2021/08/04 07:24:05;;;;;;;1.67;1.58;;;17.90;99.90;;;;;;5011732;28;20420;-71
2021/08/04 07:26:31;;;;;;;3.88;1.70;;;17.70;99.90;;;;;;5010917;28;20474;-71
2021/08/04 07:28:56;;;;;;;1.70;1.60;;;18.30;99.90;;;;;;5011775;28;20045;-71
2021/08/04 07:31:23;;;;;;;3.95;1.52;;;18.80;99.90;;;;;;5010876;28;20026;-72
2021/08/04 07:33:49;;;;;;;5.97;1.35;;;18.50;99.90;;;;;;5010857;28;20030;-72
2021/08/04 07:36:14;;;;;;;2.70;1.58;;;18.50;99.90;;;;;;4992570;28;20026;-72
2021/08/04 07:38:40;;;;;;;2.75;1.65;;;18.40;99.90;;;;;;4991984;28;20041;-70
2021/08/04 07:41:06;;;;;;;4.18;1.45;;;18.70;99.90;;;;;;5010570;28;20064;-72
2021/08/04 07:43:32;;;;;;;2.72;1.70;;;19.20;99.90;;;;;;5010940;28;20439;-71
2021/08/04 07:45:58;;;;;;;2.72;1.65;;;19.40;99.90;;;;;;5010537;28;20022;-71
2021/08/04 07:48:24;;;;;;;1.63;1.52;;;19.70;99.90;;;;;;5010863;28;20113;-71
2021/08/04 07:50:50;;;;;;;1.52;1.42;;;20.00;99.90;;;;;;5010904;28;20124;-72
2021/08/04 07:53:15;;;;;;;1.45;1.35;;;20.00;99.90;;;;;;4993104;28;20037;-71
2021/08/04 07:55:41;;;;;;;2.67;1.20;;;19.90;99.90;;;;;;5010412;28;20033;-72
2021/08/04 07:58:07;;;;;;;1.52;1.20;;;19.90;99.90;;;;;;5006593;28;20029;-73
2021/08/04 08:00:33;;;;;;;2.47;1.60;;;19.50;99.90;;;;;;5031094;28;20095;-72
2021/08/04 08:02:58;;;;;;;1.45;1.35;;;18.90;99.90;;;;;;5014348;28;20028;-74
2021/08/04 08:05:24;;;;;;;3.90;1.35;;;18.90;99.90;;;;;;5030460;28;20032;-74
2021/08/04 08:07:50;;;;;;;3.17;1.25;;;18.60;99.90;;;;;;5031226;28;20483;-75
2021/08/04 08:10:18;;;;;;;4.03;1.65;;;18.60;99.90;;;;;;5022788;28;20515;-73
2021/08/04 08:12:45;;;;;;;1.75;1.40;;;19.20;99.90;;;;;;5010408;28;20531;-75
2021/08/04 08:15:12;;;;;;;1.75;1.63;;;20.00;99.90;;;;;;5010054;28;20105;-74
2021/08/04 08:17:38;;;;;;;3.08;1.40;;;20.50;99.90;;;;;;5011748;28;20022;-75
2021/08/04 08:20:05;;;;;;;1.50;1.40;;;20.50;99.90;;;;;;4993823;28;20026;-72
2021/08/04 08:22:31;;;;;;;1.95;1.65;;;20.60;99.90;;;;;;5010144;28;20022;-73
2021/08/04 08:24:56;;;;;;;2.20;1.60;;;20.20;99.90;;;;;;5010529;28;20034;-73
2021/08/04 08:27:22;;;;;;;4.38;1.40;;;19.50;99.90;;;;;;5013615;28;20400;-73
2021/08/04 08:29:48;;;;;;;4.82;1.60;;;19.70;99.90;;;;;;5014743;28;20026;-72
2021/08/04 08:32:13;;;;;;;1.70;1.60;;;20.50;99.90;;;;;;5014286;28;20033;-73
2021/08/04 08:34:39;;;;;;;2.72;1.40;;;20.20;99.90;;;;;;5014161;28;20033;-71
2021/08/04 08:37:05;;;;;;;1.35;1.27;;;20.80;99.90;;;;;;5014409;28;20078;-71
2021/08/04 08:39:32;;;;;;;2.72;1.35;;;21.30;99.90;;;;;;5014756;28;20041;-73
2021/08/04 08:41:59;;;;;;;1.52;1.42;;;21.40;99.90;;;;;;5014987;28;20057;-72
2021/08/04 08:44:25;;;;;;;1.48;1.30;;;21.40;99.90;;;;;;5014206;28;20369;-73
2021/08/04 08:46:51;;;;;;;1.73;1.55;;;21.30;99.90;;;;;;5014665;28;20065;-71
2021/08/04 08:49:26;;;;;;;1.10;1.10;;;21.20;99.90;;;;;;5014757;28;20025;-72
2021/08/04 08:51:52;;;;;;;1.50;1.40;;;20.70;99.90;;;;;;5015002;28;20033;-72
2021/08/04 08:54:18;;;;;;;1.50;1.40;;;20.20;99.90;;;;;;5014177;28;20431;-73
2021/08/04 08:56:44;;;;;;;1.40;1.30;;;21.20;99.90;;;;;;5006026;28;20027;-73
2021/08/04 08:59:10;;;;;;;1.55;1.35;;;21.40;99.90;;;;;;4995025;28;20029;-73
2021/08/04 09:01:39;;;;;;;1.45;1.30;;;20.90;99.90;;;;;;4994922;28;20035;-73
2021/08/04 09:04:09;;;;;;;2.95;1.50;;;20.70;99.90;;;;;;4994567;28;20026;-72
2021/08/04 09:06:46;;;;;;;1.90;1.20;;;20.50;99.90;;;;;;4994342;28;20050;-72
2021/08/04 09:09:20;;;;;;;1.30;1.20;;;20.40;99.90;;;;;;4994904;28;20369;-72
2021/08/04 09:11:48;;;;;;;4.63;1.50;;;20.10;99.90;;;;;;4998584;28;20023;-72
2021/08/04 09:14:13;;;;;;;2.05;1.50;;;19.70;99.90;;;;;;5002468;28;20045;-71
2021/08/04 09:16:39;;;;;;;1.38;1.23;;;19.40;99.90;;;;;;5004049;28;20030;-73
2021/08/04 09:19:19;;;;;;;5.53;1.92;;;19.50;99.90;;;;;;5003539;28;20499;-72
2021/08/04 09:22:02;;;;;;;4.82;1.60;;;20.10;99.90;;;;;;5008706;28;20102;-71
2021/08/04 09:24:28;;;;;;;1.42;1.33;;;19.80;99.90;;;;;;5015328;28;20397;-72
2021/08/04 09:26:54;;;;;;;1.92;1.30;;;19.70;99.90;;;;;;5004754;28;20468;-72
2021/08/04 09:29:19;;;;;;;3.65;1.50;;;19.80;99.90;;;;;;5004686;28;20022;-73
2021/08/04 09:31:52;;;;;;;3.33;1.55;;;19.90;99.90;;;;;;5003209;28;20104;-72
2021/08/04 09:34:30;;;;;;;1.50;1.33;;;20.30;99.90;;;;;;5004581;28;20018;-71
2021/08/04 09:37:14;;;;;;;2.80;1.30;;;20.90;99.90;;;;;;5005587;28;20018;-71
2021/08/04 09:39:45;;;;;;;1.42;1.15;;;21.40;99.90;;;;;;5004129;28;20029;-71
2021/08/04 09:42:13;;;;;;;1.05;0.95;;;20.80;99.90;;;;;;4991071;28;20030;-70
2021/08/04 09:44:53;;;;;;;2.03;1.10;;;20.10;99.90;;;;;;5002428;28;20034;-70
2021/08/04 09:47:19;;;;;;;1.00;1.00;;;21.00;99.90;;;;;;5003664;28;20057;-71
2021/08/04 09:50:02;;;;;;;1.20;1.10;;;21.80;99.90;;;;;;5000944;28;20547;-71
2021/08/04 09:52:30;;;;;;;1.77;0.98;;;21.30;99.90;;;;;;4987946;28;20514;-73
2021/08/04 09:55:13;;;;;;;1.10;1.10;;;21.20;99.90;;;;;;5001360;28;20026;-72
2021/08/04 09:57:51;;;;;;;1.30;1.20;;;20.90;99.90;;;;;;5005174;28;20416;-73
2021/08/04 10:00:19;;;;;;;0.80;0.80;;;21.00;99.90;;;;;;5002238;28;20054;-72
2021/08/04 10:02:45;;;;;;;0.80;0.80;;;21.10;99.90;;;;;;4992784;28;20022;-72
2021/08/04 10:05:18;;;;;;;1.80;1.40;;;21.00;99.90;;;;;;5013332;28;20026;-73
2021/08/04 10:08:02;;;;;;;1.27;1.17;;;21.60;99.90;;;;;;5013520;28;20030;-73
2021/08/04 10:10:45;;;;;;;1.50;1.30;;;22.00;99.90;;;;;;5012696;28;20037;-75
2021/08/04 10:13:17;;;;;;;2.85;1.30;;;21.90;99.90;;;;;;5013203;28;20049;-73
2021/08/04 10:15:44;;;;;;;;;;;21.60;99.90;;;;;;5013478;28;20076;-74
2021/08/04 10:18:17;;;;;;;1.00;1.00;;;21.60;99.90;;;;;;5013286;28;19909;-74
2021/08/04 10:20:45;;;;;;;0.90;0.80;;;21.60;99.90;;;;;;5013207;28;20053;-74
2021/08/04 10:23:15;;;;;;;4.45;1.25;;;21.80;99.90;;;;;;5012591;28;20022;-75
2021/08/04 10:25:42;;;;;;;1.38;1.08;;;21.50;99.90;;;;;;5012301;28;20030;-73
2021/08/04 10:28:08;;;;;;;1.10;1.10;;;21.50;99.90;;;;;;5012885;28;20065;-74
2021/08/04 10:30:34;;;;;;;1.63;1.33;;;21.80;99.90;;;;;;5006218;28;20057;-73
2021/08/04 10:33:00;;;;;;;1.40;1.30;;;22.00;99.90;;;;;;5006360;28;20022;-71
2021/08/04 10:35:27;;;;;;;1.40;1.10;;;22.30;99.90;;;;;;4975242;28;20030;-71
2021/08/04 10:37:53;;;;;;;2.17;1.38;;;22.40;99.90;;;;;;4993817;28;20022;-74
2021/08/04 10:40:19;;;;;;;2.88;1.08;;;22.10;99.90;;;;;;5001101;28;20542;-71
2021/08/04 10:42:46;;;;;;;2.83;1.13;;;22.20;99.90;;;;;;5018566;28;20030;-74
2021/08/04 10:45:24;;;;;;;1.25;1.15;;;22.50;99.90;;;;;;5033872;28;20060;-72
2021/08/04 10:48:18;;;;;;;1.38;1.08;;;22.20;99.90;;;;;;5012607;28;20037;-73
2021/08/04 10:51:13;;;;;;;1.95;1.35;;;22.30;99.90;;;;;;4991690;28;20062;-71
2021/08/04 10:54:01;;;;;;;1.83;1.10;;;22.30;99.90;;;;;;4993070;28;20035;-71
2021/08/04 10:56:32;;;;;;;1.98;1.30;;;22.10;99.90;;;;;;5001241;28;20053;-71
2021/08/04 10:59:13;;;;;;;1.27;1.17;;;22.80;99.90;;;;;;4992942;28;20454;-73
2021/08/04 11:01:41;;;;;;;6.43;1.98;;;22.90;99.90;;;;;;5003841;28;20022;-72
2021/08/04 11:04:33;;;;;;;1.48;1.20;;;23.10;99.90;;;;;;5012497;28;20022;-72
2021/08/04 11:07:08;;;;;;;1.30;1.20;;;22.80;99.90;;;;;;5010628;28;20034;-72
2021/08/04 11:09:37;;;;;;;1.45;1.35;;;22.60;99.90;;;;;;5012196;28;20439;-73
2021/08/04 11:12:05;;;;;;;1.38;1.20;;;22.40;99.90;;;;;;5008750;28;20100;-73
2021/08/04 11:14:56;;;;;;;1.63;1.30;;;22.80;99.90;;;;;;4999241;28;20073;-73
2021/08/04 11:17:31;;;;;;;2.00;1.20;;;23.10;99.90;;;;;;5004279;28;20097;-71
2021/08/04 11:19:57;;;;;;;1.25;1.02;;;23.60;99.90;;;;;;5011780;28;20081;-71
2021/08/04 11:22:38;;;;;;;1.20;1.08;;;23.80;99.90;;;;;;5012225;28;20026;-74
2021/08/04 11:25:08;;;;;;;1.20;1.10;;;24.20;99.90;;;;;;4993731;28;20033;-73
2021/08/04 11:27:53;;;;;;;1.30;1.20;;;24.00;99.90;;;;;;5012207;28;20030;-72
2021/08/04 11:30:30;;;;;;;2.25;1.30;;;23.80;99.90;;;;;;5011112;28;20030;-75
2021/08/04 11:33:18;;;;;;;1.80;1.20;;;23.60;99.90;;;;;;5012172;28;20029;-74
2021/08/04 11:36:03;;;;;;;2.95;1.10;;;24.40;99.90;;;;;;5011447;28;20041;-74
2021/08/04 11:38:58;;;;;;;1.40;1.30;;;24.30;99.90;;;;;;5012099;28;20064;-74
2021/08/04 11:41:23;;;;;;;1.17;1.17;;;23.80;99.90;;;;;;4994041;28;20612;-74
2021/08/04 11:43:58;;;;;;;3.97;1.63;;;23.40;99.90;;;;;;5012309;28;20030;-73
2021/08/04 11:46:42;;;;;;;1.30;1.20;;;23.50;99.90;;;;;;5011539;28;20101;-71
2021/08/04 11:49:13;;;;;;;1.85;1.42;;;23.30;99.90;;;;;;5011140;28;20034;-72
2021/08/04 11:51:43;;;;;;;1.60;1.27;;;23.30;99.90;;;;;;5011987;28;20029;-73
2021/08/04 11:54:09;;;;;;;2.72;1.08;;;22.90;99.90;;;;;;5011695;28;20054;-73
2021/08/04 11:56:42;;;;;;;1.60;1.50;;;22.60;99.90;;;;;;5010788;28;20064;-73
2021/08/04 11:59:08;;;;;;;1.48;1.38;;;22.50;99.90;;;;;;5011250;28;20508;-72
2021/08/04 12:01:34;;;;;;;1.80;1.33;;;22.50;99.90;;;;;;5012840;28;20046;-74
2021/08/04 12:04:05;;;;;;;3.63;1.27;;;22.50;99.90;;;;;;5015181;28;20026;-74
2021/08/04 12:06:30;;;;;;;1.42;1.33;;;22.70;99.90;;;;;;5009750;28;20618;-74
2021/08/04 12:09:35;;;;;;;1.60;1.27;;;22.50;99.90;;;;;;5014898;28;20034;-74
2021/08/04 12:12:03;;;;;;;1.48;1.30;;;22.80;99.90;;;;;;4993196;28;20049;-72
2021/08/04 12:14:31;;;;;;;1.92;1.52;;;22.50;99.90;;;;;;4994919;28;20029;-72
2021/08/04 12:17:00;;;;;;;1.45;1.17;;;22.80;99.90;;;;;;4995664;28;20019;-73
2021/08/04 12:19:31;;;;;;;3.35;1.20;;;22.60;99.90;;;;;;4977891;28;20527;-73
2021/08/04 12:21:58;;;;;;;2.85;1.25;;;22.70;99.90;;;;;;5011667;28;20533;-75
2021/08/04 12:24:24;;;;;;;3.22;1.30;;;23.10;99.90;;;;;;5014666;28;20026;-74
2021/08/04 12:26:50;;;;;;;1.23;1.20;;;23.20;99.90;;;;;;5014949;28;20053;-74
2021/08/04 12:29:24;;;;;;;1.40;1.25;;;23.00;99.90;;;;;;5014998;28;20052;-74
2021/08/04 12:32:27;;;;;;;1.45;1.35;;;23.00;99.90;;;;;;5015060;28;20496;-72
2021/08/04 12:34:59;;;;;;;1.92;1.50;;;22.80;99.90;;;;;;5011786;28;20063;-71
2021/08/04 12:37:27;;;;;;;1.40;1.30;;;22.80;99.90;;;;;;5014788;28;20026;-72
2021/08/04 12:40:02;;;;;;;3.50;1.50;;;23.20;99.90;;;;;;5014921;28;20129;-71
2021/08/04 12:42:28;;;;;;;1.75;1.45;;;23.40;99.90;;;;;;5006382;28;20033;-74
2021/08/04 12:45:18;;;;;;;2.30;0.80;;;23.10;99.90;;;;;;4994506;28;20022;-74
2021/08/04 12:47:59;;;;;;;1.60;1.08;;;23.10;99.90;;;;;;4995377;28;20030;-72
2021/08/04 12:50:29;;;;;;;1.58;1.10;;;22.40;99.90;;;;;;4995223;28;20030;-72
2021/08/04 12:52:55;;;;;;;1.30;1.20;;;22.40;99.90;;;;;;4995020;28;20045;-72
2021/08/04 12:55:23;;;;;;;1.88;1.40;;;22.50;99.90;;;;;;5002328;28;20035;-73
2021/08/04 12:58:05;;;;;;;1.67;1.38;;;22.40;99.90;;;;;;5013089;28;20502;-72
2021/08/04 13:00:36;;;;;;;1.23;1.08;;;22.10;99.90;;;;;;5005900;28;20503;-73